x

South Brooks (46132) Wave Buoy

12:00am - Fri 25th Jul 2014 All times are PDT. -7 hours from GMT.

  • Sig Wave height 3.3ft
  • Peak Period 6s
  • Wind
    4mph, 9mph gusts
  • Sea Temp 59°f
  • 空気 Temp 58°f
  • Sea Pressure 1020.8mb
  • South Brooks
  • South Brooks

More Historic Weather Station data

Upgrade to MSW Pro to gain access to the past 30 days of data for over 8000 Wavebouys and Weather Stations around the globe.

Join Pro

Comparision Forecast

View Surf forecast
   
Fri 07/25 12:00am 3.5ft 6s 4 9 mph 1020.8mb 59f 58f
Thu 07/24 11:00pm 3.5ft 7s 7 11 mph 1021.1mb 59f 58f
10:00pm 3.5ft 7s 11 13 mph 1021.1mb 58f 58f
9:00pm 3ft 7s 11 13 mph 1021.1mb 59f 58f
8:00pm 3.5ft 7s 7 9 mph 1021.3mb 58f 58f
7:00pm 3.5ft 6s 7 9 mph 1021.5mb 58f 59f
6:00pm 3.5ft 7s 7 9 mph 1021.8mb 58f 58f
5:00pm 4ft 6s 9 11 mph 1022mb 59f 57f
4:00pm 4.5ft 6s 9 11 mph 1022.3mb 59f 57f
3:00pm 4.5ft 6s 9
mph
1022.2mb 59f 57f
2:00pm 4.5ft 7s 7 9 mph 1022.3mb 59f 56f
1:00pm 5ft 7s 11 13 mph 1021.9mb 58f 58f
12:00pm 5ft 7s 11 13 mph 1021.5mb 58f 58f
11:00am 5ft 6s 9 11 mph 1021.1mb 58f 58f
10:00am 5ft 7s 9 11 mph 1020.8mb 58f 59f
9:00am 4.5ft 7s 9 13 mph 1020.4mb 58f 59f
8:00am 5ft 8s 11 16 mph 1020.1mb 59f 58f
7:00am 5ft 7s 9 11 mph 1019.8mb 58f 58f
6:00am 5ft 7s 18 22 mph 1019.2mb 59f 58f
5:00am 5ft 7s 13 16 mph 1019mb 59f 58f
4:00am 5ft 7s 18 22 mph 1018.4mb 59f 58f
3:00am 5.5ft 6s 18 20 mph 1018.3mb 59f 58f
2:00am 5ft 7s 20 25 mph 1017.8mb 59f 58f
1:00am 5ft 8s 18 22 mph 1017.6mb 59f 58f
12:00am 5ft 6s 18 20 mph 1017.9mb 59f 58f
Wed 07/23 11:00pm 5.5ft 6s 16 20 mph 1017.6mb 59f 58f
10:00pm 5.5ft 7s 13 16 mph 1017.1mb 59f 58f
9:00pm 6ft 7s 13 16 mph 1017.1mb 59f 58f
8:00pm 5ft 7s 9
mph
1016.9mb 59f 58f
7:00pm 4.5ft 8s 9
mph
1016.6mb 59f 58f
6:00pm 4.5ft 6s 7 9 mph 1016.6mb 59f 58f
5:00pm 4.5ft 8s 4 7 mph 1016.6mb 59f 58f
4:00pm 4.5ft 8s 2 4 mph 1016.2mb 59f 58f
3:00pm 4ft 9s 11 13 mph 1015.7mb 59f 58f
2:00pm 4ft 8s 13 16 mph 1014.6mb 59f 58f
1:00pm 4ft 9s 13 16 mph 1014.2mb 59f 58f
12:00pm 4ft 9s 11 13 mph 1014.2mb 58f 58f
11:00am 4ft 8s 9 11 mph 1014.3mb 58f 57f
10:00am 4ft 9s 11 13 mph 1014.2mb 58f 57f
9:00am 4ft 8s 13 16 mph 1014.2mb 58f 56f
8:00am 3.5ft 9s 9 11 mph 1014.4mb 58f 57f
7:00am 4.5ft 8s 9 11 mph 1014.1mb 58f 57f
6:00am 4ft 8s 9
mph
1014.4mb 58f 57f
5:00am 4.5ft 8s 13 18 mph 1014.4mb 58f 57f
4:00am 4.5ft 9s 9 11 mph 1014.8mb 58f 58f
3:00am 4.5ft 9s 9 11 mph 1015.2mb 58f 57f
2:00am 4.5ft 8s 9
mph
1015.6mb 58f 58f
1:00am 5ft 9s 9 11 mph 1016.2mb 58f 58f
12:00am 5ft 9s 9 11 mph 1016.6mb 58f 58f
Tue 07/22 11:00pm 4.5ft 8s 9
mph
1016.8mb 58f 57f
10:00pm 5ft 10s 9 11 mph 1016.9mb 58f 57f
9:00pm 5ft 9s 9 11 mph 1017.1mb 59f 58f
8:00pm 5.5ft 9s 2
mph
1017.1mb 59f 58f
7:00pm 5ft 9s 2 4 mph 1017.1mb 59f 57f
6:00pm 6ft 9s 9 11 mph 1017.5mb 59f 57f
5:00pm 5ft 8s 11 16 mph 1017.7mb 58f 58f
4:00pm 6ft 8s 11 13 mph 1017.7mb 58f 58f
3:00pm 6ft 9s 7 9 mph 1017.7mb 59f 58f
2:00pm 5.5ft 8s 4 7 mph 1017.2mb 59f 58f
1:00pm 6ft 8s 9 11 mph 1016.7mb 58f 57f
12:00pm 6ft 8s 7 11 mph 1016.2mb 58f 58f
11:00am 6ft 8s 9 11 mph 1015.8mb 58f 58f
10:00am 6ft 8s 9 11 mph 1015.3mb 58f 57f
9:00am 6ft 7s 13 16 mph 1015mb 58f 56f
8:00am 5.5ft 8s 13 18 mph 1014.7mb 58f 57f
7:00am 6ft 8s 13 16 mph 1014.5mb 58f 56f
6:00am 5ft 8s 18 20 mph 1014mb 58f 56f
5:00am 5ft 8s 18 20 mph 1014mb 58f 56f
4:00am 4.5ft 8s 18 22 mph 1014.2mb 58f 55f
3:00am 5ft 8s 16 20 mph 1014.4mb 58f 56f
2:00am 4.5ft 8s 18 22 mph 1014.6mb 58f 57f
1:00am 5ft 8s 18 22 mph 1014.4mb 58f 57f
12:00am 5ft 7s 16 20 mph 1014.5mb 58f 56f
Mon 07/21 11:00pm 5ft 6s 13 16 mph 1014.6mb 58f 56f
10:00pm 5ft 8s 16 18 mph 1014.9mb 58f 55f
9:00pm 5ft 7s 13 16 mph 1014.8mb 58f 55f
8:00pm 5ft 10s 18 22 mph 1014.8mb 58f 55f
7:00pm 5ft 10s 16 20 mph 1014.9mb 58f 58f
6:00pm 4.5ft 9s 16 18 mph 1015.1mb 58f 58f
5:00pm 4.5ft 10s 16 18 mph 1015.5mb 58f 58f
4:00pm 4ft 9s 18 20 mph 1015.9mb 58f 57f
3:00pm 4ft 8s 16 20 mph 1016.3mb 58f 57f
2:00pm 4ft 10s 13 18 mph 1016.2mb 58f 58f
1:00pm 4.5ft 8s 13 18 mph 1016.3mb 59f 57f
12:00pm 4.5ft 9s 11 13 mph 1016.3mb 59f 58f
11:00am 5ft 9s 9 11 mph 1016.3mb 59f 56f
10:00am 5ft 9s 7 9 mph 1016.3mb 58f 55f
9:00am 5.5ft 10s 13 16 mph 1016mb 59f 55f